Motte Rimrock Reserve, California Weather observations

Data are for 10 minute period ending at time listed.
 Day   Time   Solar   Ave.   Ave.  Ave.  Vector  Max.   Baro.   Total    
  of    of     Rad.   Air    Rel.  Wind   Wind   Wind  Press.  Precip.   
Year   Day            Temp.  Hum.  Speed  Dir.   Gust                    
2016   (PST)  Kw/m2    F      %     mph   deg.    mph    mb.     in.     
-------------------------------------------------------------------------
 179   18:40   0.03   87.1    26   16.3   301    22.0   946.0    0.00 
 179   18:50   0.02   86.7    27   14.2   307    17.2   946.0    0.00 
 179   19:00   0.01   86.5    27   13.0   308    16.2   946.0    0.00 
 179   19:10   0.01   86.1    28   10.8   304    14.6   946.2    0.00 
 179   19:20   0.01   85.8    28    4.1     1     8.9   946.4    0.00 
 179   19:30   0.00   85.6    29    2.9   297     7.0   946.5    0.00 
 179   19:40   0.00   85.0    30    4.1   297     6.8   946.6    0.00 
 179   19:50   0.00   84.6    31    3.3   330     5.2   946.7    0.00 
 179   20:00   0.00   84.9    31    4.5   287     6.2   946.8    0.00 
 179   20:10   0.00   85.0    31    3.2   265     4.6   946.9    0.00 
 179   20:20   0.00   84.9    31    2.1   210     4.0   947.1    0.00 
 179   20:30   0.00   84.1    31    2.0   274     3.2   947.3    0.00 
 179   20:40   0.00   83.7    32    2.9   276     3.7   947.4    0.00 
 179   20:50   0.00   82.6    33    5.2   308     7.1   947.6    0.00 
 179   21:00   0.00   82.2    33    5.1   298     7.0   947.6    0.00 
 179   21:10   0.00   81.1    36    7.2   323     9.2   947.7    0.00 
 179   21:20   0.00   79.6    39    7.2   319     9.5   947.7    0.00 
 179   21:30   0.00   79.6    40    7.0   301     8.8   947.6    0.00 
 179   21:40   0.00   79.2    41    7.1   311     9.6   947.7    0.00 
 179   21:50   0.00   79.0    41    6.9   316     9.6   947.7    0.00 
 179   22:00   0.00   78.8    42    7.0   303     9.1   947.7    0.00 
 179   22:10   0.00   78.2    43    6.5   293     8.0   947.7    0.00 
 179   22:20   0.00   78.0    43    6.6   293     7.9   947.6    0.00 
 179   22:30   0.00   77.8    44    5.7   298     7.4   947.6    0.00 
 179   22:40   0.00   78.4    42    3.7   316     5.6   947.6    0.00 
 179   22:50   0.00   79.5    39    3.3   353     6.1   947.4    0.00 
 179   23:00   0.00   80.1    38    1.2   118     3.9   947.4    0.00 
 179   23:10   0.00   78.7    42    6.4    70     8.4   947.6    0.00 
 179   23:20   0.00   78.0    42    5.6    88     8.1   947.6    0.00 
 179   23:30   0.00   77.6    43    2.4   122     3.7   947.5    0.00 
 179   23:40   0.00   78.1    42    2.8   159     3.9   947.5    0.00 
 179   23:50   0.00   78.3    40    3.6   179     5.2   947.3    0.00 
 180    0:00   0.00   77.8    41    4.0    57     7.2   947.6    0.00 
 180    0:10   0.00   76.6    43    1.9   246     2.8   947.4    0.00 
 180    0:20   0.00   76.7    42    1.9   210     2.6   947.4    0.00 
 180    0:30   0.00   77.3    41    3.0   152     3.7   947.4    0.00 
 180    0:40   0.00   77.1    41    4.5   240     5.3   947.2    0.00 
 180    0:50   0.00   76.4    43    3.6   260     4.4   947.2    0.00 
 180    1:00   0.00   77.2    42    2.1   259     2.6   947.3    0.00 
 180    1:10   0.00   77.5    42    3.5   271     4.9   947.1    0.00 
 180    1:20   0.00   77.2    42    3.9    18     5.4   947.2    0.00 
 180    1:30   0.00   75.3    47    6.1   348     8.4   947.2    0.00 
 180    1:40   0.00   73.5    52    7.4   315     9.3   947.2    0.00 
 180    1:50   0.00   73.2    56    4.4   322     7.7   947.2    0.00 
 180    2:00   0.00   73.4    55    4.5   314     7.6   947.2    0.00 
 180    2:10   0.00   73.2    57    6.8   307     9.1   947.1    0.00 
 180    2:20   0.00   73.3    58    5.3   311     7.6   947.2    0.00 
 180    2:30   0.00   73.0    58    4.1   312     7.1   947.2    0.00 
 180    2:40   0.00   73.5    57    4.6   300     6.5   947.2    0.00 
 180    2:50   0.00   74.4    55    4.2   298     5.3   947.2    0.00 
 180    3:00   0.00   75.2    53    2.3   323     4.2   947.3    0.00 
 180    3:10   0.00   75.7    51    2.5    84     5.8   947.5    0.00 
 180    3:20   0.00   73.3    54    1.8    90     4.1   947.5    0.00 
 180    3:30   0.00   72.2    56    1.9   203     4.2   947.6    0.00 
 180    3:40   0.00   71.9    55    3.0   209     3.8   947.6    0.00 
 180    3:50   0.00   71.3    58    2.6   256     3.4   947.6    0.00 
 180    4:00   0.00   71.3    59    2.7   273     3.7   947.6    0.00 
 180    4:10   0.00   72.1    58    2.9   267     4.0   947.5    0.00 
 180    4:20   0.00   72.7    57    2.4   262     4.0   947.6    0.00 
 180    4:30   0.00   73.6    51    1.9   137     4.8   947.8    0.00 
 180    4:40   0.01   72.6    55    5.3    59     7.1   947.9    0.00 
 180    4:50   0.01   71.5    59    4.9    51     6.7   948.1    0.00 
 180    5:00   0.01   70.6    63    4.4   354     7.8   948.1    0.00 
 180    5:10   0.01   70.9    63    4.3   324     5.1   948.1    0.00 
 180    5:20   0.02   72.5    61    3.8     4     5.1   948.2    0.00 
 180    5:30   0.03   72.4    61    2.0   342     3.1   948.2    0.00 
 180    5:40   0.04   72.8    61    1.8   330     2.3   948.2    0.00 
 180    5:50   0.07   73.3    61    1.4   298     2.4   948.2    0.00 
 180    6:00   0.11   74.2    59    1.1   271     2.6   948.3    0.00 
 180    6:10   0.08   75.2    57    2.1    93     3.9   948.4    0.00 
 180    6:20   0.13   74.6    58    2.8    82     4.7   948.5    0.00 
 180    6:30   0.22   77.3    53    1.0    82     2.0   948.6    0.00 
 180    6:40   0.25   78.1    52    1.7   146     3.7   948.5    0.00 
 180    6:50   0.23   77.6    52    2.8   163     4.2   948.5    0.00 
 180    7:00   0.18   77.9    51    2.8   156     4.1   948.6    0.00 
 180    7:10   0.22   79.0    47    0.7   110     2.8   948.7    0.00 
 180    7:20   0.26   78.7    49    4.0    54     6.1   948.7    0.00 
 180    7:30   0.42   79.4    46    2.8    74     4.3   948.7    0.00 
 180    7:40   0.53   81.6    41    2.7    55     5.1   948.7    0.00 
 180    7:50   0.53   83.8    34    2.2    85     4.4   948.6    0.00 
 180    8:00   0.55   84.7    33    2.2   101     4.5   948.5    0.00 
 180    8:10   0.54   85.8    32    1.5   136     3.3   948.3    0.00 
 180    8:20   0.62   86.8    30    1.3   236     4.5   948.2    0.00 
 180    8:30   0.64   87.8    29    2.1   209     5.6   948.2    0.00 
 180    8:40   0.66   88.9    28    2.2   213     3.7   948.1    0.00 
 180    8:50   0.69   89.2    28    1.5   157     4.6   948.0    0.00 
 180    9:00   0.70   90.3    27    1.1   114     2.9   948.0    0.00 
 180    9:10   0.74   91.4    26    2.6    67     6.7   948.0    0.00 
 180    9:20   0.77   91.0    26    3.0    73     6.1   947.9    0.00 
 180    9:30   0.79   91.9    25    2.7    33     6.6   948.0    0.00 
 180    9:40   0.80   92.4    24    3.3   115     9.8   948.0    0.00 
 180    9:50   0.82   93.4    24    5.4   309     9.3   948.1    0.00 
 180   10:00   0.85   92.9    24    4.9   302    11.0   948.0    0.00 
 180   10:10   0.86   93.7    23    5.1   314     9.6   947.9    0.00 
 180   10:20   0.88   93.6    24    6.7   307    13.1   947.9    0.00 
 180   10:30   0.89   94.2    26    8.0   304    14.3   947.9    0.00 
 180   10:40   0.91   93.7    26    8.1   314    14.0   947.9    0.00 
 180   10:50   0.92   94.2    24    9.1   304    14.8   947.9    0.00 
 180   11:00   0.93   95.2    23   10.7   297    14.8   947.8    0.00 
 180   11:10   0.94   95.9    22   10.9   289    16.7   947.7    0.00 
 180   11:20   0.94   95.9    23    9.9   298    15.9   947.7    0.00 
 180   11:30   0.95   96.6    22   11.2   298    17.2   947.6    0.00 
 180   11:40   0.95   96.8    21   13.0   304    17.7   947.5    0.00 
 180   11:50   0.95   97.5    21   12.9   303    22.6   947.5    0.00 
 180   12:00   0.95   96.6    23   13.7   306    18.1   947.5    0.00 
 180   12:10   0.95   96.7    24   15.7   303    21.0   947.4    0.00 
 180   12:20   0.95   96.7    24   14.9   300    20.2   947.3    0.00 
 180   12:30   0.95   96.7    24   16.5   302    20.8   947.1    0.00 
 180   12:40   0.94   96.5    24   18.0   305    23.9   946.9    0.00 
 180   12:50   0.94   96.5    24   17.7   300    22.3   946.8    0.00 
 180   13:00   0.89   96.6    24   18.1   304    25.6   946.7    0.00 
 180   13:10   0.91   95.7    25   19.6   309    25.0   946.7    0.00 
 180   13:20   0.90   96.1    23   18.4   304    23.4   946.7    0.00 
 180   13:30   0.89   95.8    23   19.7   300    24.2   946.6    0.00 
 180   13:40   0.88   95.8    23   19.7   302    26.5   946.5    0.00 
 180   13:50   0.86   96.0    23   19.6   302    26.5   946.3    0.00 
 180   14:00   0.85   96.2    20   20.2   299    26.2   946.3    0.00 
 180   14:10   0.83   96.7    18   19.4   302    25.2   946.2    0.00 
 180   14:20   0.80   97.3    16   18.6   301    24.5   946.2    0.00 
 180   14:30   0.77   97.4    15   20.3   301    26.3   946.1    0.00 
 180   14:40   0.76   97.0    15   19.4   299    25.0   946.0    0.00 
 180   14:50   0.73   97.5    15   18.1   298    23.6   945.9    0.00 
 180   15:00   0.71   96.9    17   18.9   301    25.9   945.8    0.00 
 180   15:10   0.68   96.4    18   18.4   309    24.2   945.8    0.00 
 180   15:20   0.66   96.0    18   19.1   306    25.9   945.7    0.00 
 180   15:30   0.63   95.8    18   19.0   308    24.3   945.6    0.00 
 180   15:40   0.60   96.0    17   18.2   305    25.6   945.6    0.00 
 180   15:50   0.57   95.6    17   18.9   309    23.6   945.5    0.00 
 180   16:00   0.54   95.7    17   18.8   308    25.1   945.5    0.00 
 180   16:10   0.51   94.6    19   19.6   313    24.3   945.4    0.00 
 180   16:20   0.47   94.2    20   19.3   312    25.6   945.2    0.00 
 180   16:30   0.44   93.6    20   20.0   310    24.6   945.2    0.00 
 180   16:40   0.41   92.8    21   19.7   306    26.0   945.1    0.00 
 180   16:50   0.38   92.3    22   19.4   305    25.1   945.1    0.00 
 180   17:00   0.34   91.6    23   20.5   306    26.1   945.0    0.00 
 180   17:10   0.31   90.8    23   20.6   303    26.8   945.0    0.00 
 180   17:20   0.27   90.1    23   17.9   302    26.3   945.1    0.00 
 180   17:30   0.24   89.3    24   15.9   304    21.9   945.2    0.00 
 180   17:40   0.21   88.9    25   12.7   296    18.9   945.5    0.00 
 180   17:50   0.18   88.4    26   12.1   294    16.5   945.5    0.00 
 180   18:00   0.15   87.6    28   13.6   314    18.4   945.6    0.00 
 180   18:10   0.12   86.3    31   16.1   314    21.2   945.6    0.00 
 180   18:20   0.09   84.8    32   19.2   304    22.8   945.4    0.00 
 180   18:30   0.07   84.0    35   17.1   307    21.2   945.7    0.00 

Return to Motte Rimrock Reserve graphs page.


Western Regional Climate Center,wrcc@dri.edu